VATSIM Germany Forum

Zurück   VATSIM Germany Forum > Community > Events

Events Ankündigungen von Events, Checkouts, TV-Terminen, usw.

Antwort
 
LinkBack Themen-Optionen Ansicht
Alt 2009-01-14, 19:26   #101 (permalink)
 
Registriert seit: 2003-08-23
Alter: 31
Beiträge: 3.482
Danke erteilt: 4.047
4.202 Danksagungen in 1.712 Beiträgen erhalten
Standard

So, gleich wirds ernst. Das Wetter spielt auch mit:

EDDM 141650Z VRB02KT 5000 BR NSC M03/M06 Q1015 NOSIG

Und richtig schlecht wirds erst morgen Abend:

TAF EDDM 141700Z 1418/1524 29003KT 4000 BR NSC
BECMG 1422/1424 BKN012
BECMG 1502/1504 OVC006
TEMPO 1504/1508 2000 OVC003
BECMG 1510/1512 07005KT 6000 BKN012
TEMPO 1512/1516 SCT012
BECMG 1516/1518 3000 BR
BECMG 1518/1520 1200 BCFG
TEMPO 1520/1524 0500 FZFG VV002
__________________
Grüße,
Alex
Alexander Klink ist offline   Mit Zitat antworten
Alt 2009-01-21, 13:38   #102 (permalink)
 
Registriert seit: 2008-01-03
Ort: Kemnath und diverse ICEs :D
Alter: 36
Beiträge: 377
Danke erteilt: 381
487 Danksagungen in 216 Beiträgen erhalten
Standard

*push*

Heute ist es wieder soweit - auch wenn (noch) nicht fully staffed.

Als Rennstrecke empfehlen sich EDDS (Event-Thread) und LOWW.
Tobias Wassermann ist offline   Mit Zitat antworten
Alt 2009-02-04, 14:19   #103 (permalink)
 
Benutzerbild von Felix Musselmann
 
Registriert seit: 2007-09-13
Beiträge: 3.824
Danke erteilt: 1.414
3.182 Danksagungen in 1.582 Beiträgen erhalten
Standard

Heute ist wieder MüMi und bis jetzt sind 5 Stationen gebucht. Ebenfalls gibt es ein "Expect Holdings and Delays due to APP CPT von Anderas Auhorn".
Das Wetter sieht auch interresant aus, zur Zeit noch CatIII Bedingungen, sollte aber heute Abend ein wenig besser werden:
METAR 041150Z 06004KT 0300 R26R/0250N R26L/0275V0400N FZFG VV///
M01/M01 Q0997 TEMPO 0600 BKN002

TAF 041140Z 0412/0518 07003KT 0400 FZFG SCT001 BKN002
TEMPO 0412/0419 0700
BECMG 0509/0511 3000 BR BKN004

Bis heute Abend
Felix
__________________
Felix Musselmann ist offline   Mit Zitat antworten
Alt 2009-02-11, 11:12   #104 (permalink)
 
Benutzerbild von Felix Musselmann
 
Registriert seit: 2007-09-13
Beiträge: 3.824
Danke erteilt: 1.414
3.182 Danksagungen in 1.582 Beiträgen erhalten
Standard

Und schon wieder ist eine Woche um. Bis jetzt sind wieder 4 Stationen gebucht, viellleicht findet sich noch ein Radar.
Der Wind wird sich laut TAF auch beruhigen

TAF EDDM 110500Z 1106/1212 27015G30KT 9999 BKN020
TEMPO 1106/1108 4000 -SN
TEMPO 1109/1116 4000 -SHSN BKN008CB PROB30
TEMPO 1110/1114 2000 SHSN
BECMG 1116/1118 28010KT BKN008
BECMG 1208/1210 SCT015

Bis heute Abend
Felix

Edit: Sorry, ich musste leider meine Buchung zurücknehmen, da es mich anscheinend mit der Grippe erwischt, wusste auch net dass sich das so schnell ändert. Wenn ich kann komme ich spontan vorbei.
__________________

Geändert von Felix Musselmann (2009-02-11 um 14:27 Uhr)
Felix Musselmann ist offline   Mit Zitat antworten
Alt 2009-02-17, 14:12   #105 (permalink)
 
Registriert seit: 2008-05-31
Beiträge: 527
Danke erteilt: 1.032
316 Danksagungen in 135 Beiträgen erhalten
Standard

Bis jetzt sind sieben Stationen gebucht, vielleicht werden es noch mehr!


EDDM_1_GND München Apron (1, 6-9, M) Baris Savas 18:00-21:30
EDDM_DEL München Delivery Ralf Ittmann 18:00-22:00
EDDM_N_TWR München Tower (north) Michael Hauptenbuchner 18:00-22:00
EDDM_N_APP München Arrival (North) Michael Krause 18:00-22:00
EDDM_N_GND München Ground (North) Tobias Wassermann 18:00-22:00
EDDM_F_APP München Director Andreas Auhorn 18:00-22:00
EDMM_R_CTR München Radar (Roding) Alexander Klink 18:00-22:00
EDMM_A_CTRMünchen Radar (Allersberg) Daniel Rösen 18:30-22:00


Code:
TAF 171100Z 1712/1818 25015G25KT 4000 -SN SCT007 OVC012 TEMPO
         1712/1714 1200 SN BKN004 BECMG 1714/1716 34010KT 9999 NSW
         SCT020 BECMG 1802/1805 27005KT 4000 BR BECMG 1807/1809 8000


ATC MUNICH REPORTS AN INCREASING NUMBER OF LEVEL BUSTS WITH
AIRCRAFT CLIMBING ABOVE THE FLIGHT LEVEL PUBLISHED IN SID WITHOUT
CLEARANCE BY ATC. PILOTS ARE URGENTLY ASKED TO COMPLY WITH
ALTIMETER SETTING PROCEDURES BY SETTING THE STANDARD QNH WHEN
PASSING THE TRANSITION ALTITUDE. OTHERWISE VERTICAL SEPARATION TO
ARRIVAL TRAFFIC IS NOT ENSURED. BE AWARE YOU ARE OPERATING IN A
DENSE TRAFFIC ENVIRONMENT.



Für den CPT in Frankfurt eignet sich München wunderbar:

Code:
TAF 171100Z 1712/1818 30007KT 9999 SCT020 BKN030 BECMG 1712/1714
         04010KT SCT030 BECMG 1802/1804 08003KT

SCHEDULE: DAILY 2130-0500
RWY 07L/25R CLOSED.



WINDSHIFT AND TURBULENCE ON RWY 18: WITH WINDS BETWEEN DIRECTION
200DEG AND 160DEG CLOCKWISE AND SPEEDS OF 15KT AND MORE ON RWY 18
GUSTS AND STRONG WINDSHIFTS UP TO TAIL WIND COMPONENTS MAY OCCUR.



ACFT PARKING ON PSN B10 HAVE TO CONTACT APRON, PRIOR ACTUAL ENGINE
START UP.

Geändert von Dennis Poyda (2009-02-18 um 13:51 Uhr)
Dennis Poyda ist offline   Mit Zitat antworten
Alt 2009-02-18, 00:20   #106 (permalink)
 
Benutzerbild von Daniel Rösen
 
Registriert seit: 2005-08-30
Ort: Köln
Beiträge: 4.977
Danke erteilt: 2.427
3.872 Danksagungen in 1.328 Beiträgen erhalten
Standard

Radar is auch gebucht. Der Rost muß runter.
__________________
Hocherfreut,
Statler

Maintain supersonic until crossing threshold, expedite vacating!
Daniel Rösen ist offline   Mit Zitat antworten
Alt 2009-02-18, 18:49   #107 (permalink)
 
Registriert seit: 2008-05-31
Beiträge: 527
Danke erteilt: 1.032
316 Danksagungen in 135 Beiträgen erhalten
Standard

METAR 181620Z VRB02KT CAVOK M04/M11 Q1024 NOSIG

TAF 181100Z 1812/1918 29004KT 9999 FEW020 BECMG 1900/1902 BKN006
PROB30 TEMPO 1900/1907 3000 -SN BECMG 1907/1909 SCT015




TRIGGER NOTAM - PERM AIRAC AIP AMDT 01/09 WEF 12FEB2009. CHANGES
TO STAR, APCH PROCEDURES AND WAYPOINT LIST. : NOTAM ED/A0091/09

TRIGGER NOTAM - PERM AIRAC AIP AMDT 02/09 WEF 12MAR2009. CHANGES
TO INSTRUMENT DEPARTURE ROUTES, DEPARTURE CHARTS AND WAYPOINT LIST.
: NOTAM ED/A0315/09

ILS/GP RWY 26R NOT USABLE UNDER 2,5 DEGREES. : NOTAM ED/A4387/08

ATC MUNICH REPORTS AN INCREASING NUMBER OF LEVEL BUSTS WITH
AIRCRAFT CLIMBING ABOVE THE FLIGHT LEVEL PUBLISHED IN SID WITHOUT
CLEARANCE BY ATC. PILOTS ARE URGENTLY ASKED TO COMPLY WITH
ALTIMETER SETTING PROCEDURES BY SETTING THE STANDARD QNH WHEN
PASSING THE TRANSITION ALTITUDE. OTHERWISE VERTICAL SEPARATION TO
ARRIVAL TRAFFIC IS NOT ENSURED. BE AWARE YOU ARE OPERATING IN A
DENSE TRAFFIC ENVIRONMENT. : NOTAM ED/A4353/08

OCA (OCH) RAISED AS FOLLOWS: NDB-DME RWY 08L ACFT CAT A 1920
(450), B 1920 (450), C 1980 (510), D 1980 (510) FT. RNAV (GPS) RWY
08R ALL ACFT CAT 1920 (430) FT. DUE UP TO 3 CRANES 740M IN FRONT OF
THR 08L AND 850M S OF EXTD RCL. ELEV 1666FT / 189FT GND. ICAO
MARKED. RELEVANT OCA VALUES IN NOTAM A1624/08 ARE SUSPENDED.
: NOTAM ED/A3138/08

EURACH DVOR/DME EUR 115.20/CH99X WITHDRAWN. : NOTAM ED/A1894/08
Dennis Poyda ist offline   Mit Zitat antworten
Alt 2009-03-04, 15:33   #108 (permalink)
 
Registriert seit: 2008-05-31
Beiträge: 527
Danke erteilt: 1.032
316 Danksagungen in 135 Beiträgen erhalten
Standard

TAF 041100Z 0412/0518 09008KT 9999 BKN007 BECMG 0412/0414 NSC
FM050900 25010KT 9999 BKN025 PROB30 TEMPO 0509/0518 RA



Zitat:
EDUCED RWY SEPARATION BTN TWO ACFT USING SAME RWY, ONLY APPLIED
BY FLW MET COND: VIS 5KM OR MORE, CEILING 1000FT OR ABOVE.

ADD HOLDING POSITION CAT II/III AT THR 08L ON TWY A1 AND TWY N
250M SOUTH OF RWY CENTERLINE. (REF AIP GERMANY PAGE AD 2 EDDM 2-5
AND 2-7 OF 20 NOV 2008)



Code:
EDDM_1_GND 
München Apron 
Baris Savas 
18:00
21:00

EDDM_N_TWR
München Tower (North)
Patrick Krämer
18:00
21:00
	
EDDM_F_APP
München Director
Andreas Auhorn
18:00
22:00
	
EDDM_N_APP
München Arrival (North)  	
Rainer Brinkschulte
18:00
22:00
	
EDDM_DEL
München Delivery
Oliver Fuckert
19:00
21:30
Dennis Poyda ist offline   Mit Zitat antworten
Alt 2009-03-11, 09:49   #109 (permalink)
 
Benutzerbild von Felix Musselmann
 
Registriert seit: 2007-09-13
Beiträge: 3.824
Danke erteilt: 1.414
3.182 Danksagungen in 1.582 Beiträgen erhalten
Standard

Es ist wieder soweit. 5 Stationen sind gebucht und freuen sich auf euren Besuch.
Felix
__________________
Felix Musselmann ist offline   Mit Zitat antworten
Alt 2009-03-11, 15:40   #110 (permalink)
 
Registriert seit: 2008-05-31
Beiträge: 527
Danke erteilt: 1.032
316 Danksagungen in 135 Beiträgen erhalten
Standard

Zitat:
EDDM_DEL
München Delivery
Dennis Poyda
18:30
21:00

EDDM_1_GND
München Apron (1-12 M)
Felix Musselmann
18:00
21:00

EDDM_N_TWR
München Tower (North)
Max Gillhuber
18:00
22:00

EDDM_N_APP
München Arrival (North)
Thorsten Zoerner
18:00
21:00

EDMM_R_CTR
München Radar (Roding)
Alexander Klink
18:00
22:00

METAR 111250Z 30015KT 9999 FEW043 BKN060 05/M03 Q1019 NOSIG

TAF 111100Z 1112/1218 30012KT 9999 FEW020 BKN035 TEMPO 1112/1120
30015G25KT 2000 SHRASN BKN008CB PROB30 TEMPO 1112/1217 1200
SHGS BKN004CB PROB30 TEMPO 1120/1207 2000 -SHSN BKN006CB
BECMG 1215/1218 24010KT 4000 RA



Code:
ROUTE PROCEDURE IN CASE OF RECLEARANCE BY MUENCHEN TWR: IN CASE OF
RECLEARANCE ONTO KPT SID THE PILOT SHALL REJOIN THE PLANNED FLIGHT
ROUTE VIA EITHER KPT-(U)L856-RAVED OR KPT-Y740-FUSSE.
Code:
REDUCED RWY SEPARATION BTN TWO ACFT USING SAME RWY, ONLY APPLIED
BY FLW MET COND: VIS 5KM OR MORE, CEILING 1000FT OR ABOVE
Code:
ADD HOLDING POSITION CAT II/III AT THR 08L ON TWY A1 AND TWY N
250M SOUTH OF RWY CENTERLINE. (REF AIP GERMANY PAGE AD 2 EDDM 2-5
AND 2-7 OF 20 NOV 2008)
Dennis Poyda ist offline   Mit Zitat antworten
Antwort

  VATSIM Germany Forum > Community > Events


Themen-Optionen
Ansicht

Forumregeln
Es ist dir nicht erlaubt, neue Themen zu verfassen.
Es ist dir nicht erlaubt, auf Beiträge zu antworten.
Es ist dir nicht erlaubt, Anhänge hochzuladen.
Es ist dir nicht erlaubt, deine Beiträge zu bearbeiten.

BB-Code ist an.
Smileys sind an.
[IMG] Code ist an.
HTML-Code ist aus.
Trackbacks are an
Pingbacks are an
Refbacks are an



Alle Zeitangaben in WEZ +2. Es ist jetzt 05:57 Uhr.


Powered by vBulletin® Version 3.8.4 (Deutsch)
Copyright ©2000 - 2018, Jelsoft Enterprises Ltd.
Template-Modifikationen durch TMS
© 2006 - 2018 vatsim-germany.org